sensor_id;sensor_type;location;lat;lon;timestamp;P1;durP1;ratioP1;P2;durP2;ratioP2
57826;SDS011;43656;57.746;11.780;2022-08-11T00:01:10;8.30;;;2.08;;
57826;SDS011;43656;57.746;11.780;2022-08-11T00:03:55;7.68;;;2.13;;
57826;SDS011;43656;57.746;11.780;2022-08-11T00:06:28;7.07;;;2.15;;
57826;SDS011;43656;57.746;11.780;2022-08-11T00:08:56;6.03;;;1.85;;
57826;SDS011;43656;57.746;11.780;2022-08-11T00:11:34;9.20;;;2.25;;
57826;SDS011;43656;57.746;11.780;2022-08-11T00:14:02;7.50;;;2.10;;
57826;SDS011;43656;57.746;11.780;2022-08-11T00:16:29;7.32;;;1.92;;
57826;SDS011;43656;57.746;11.780;2022-08-11T00:18:56;8.30;;;1.92;;
57826;SDS011;43656;57.746;11.780;2022-08-11T00:21:25;9.00;;;1.98;;
57826;SDS011;43656;57.746;11.780;2022-08-11T00:23:52;9.25;;;2.20;;
57826;SDS011;43656;57.746;11.780;2022-08-11T00:26:19;8.85;;;1.90;;
57826;SDS011;43656;57.746;11.780;2022-08-11T00:28:46;8.52;;;2.20;;
57826;SDS011;43656;57.746;11.780;2022-08-11T00:31:19;11.65;;;2.30;;
57826;SDS011;43656;57.746;11.780;2022-08-11T00:33:48;6.90;;;2.00;;
57826;SDS011;43656;57.746;11.780;2022-08-11T00:36:17;8.35;;;1.88;;
57826;SDS011;43656;57.746;11.780;2022-08-11T00:38:44;5.50;;;1.73;;
57826;SDS011;43656;57.746;11.780;2022-08-11T00:47:12;8.00;;;2.35;;
57826;SDS011;43656;57.746;11.780;2022-08-11T00:49:34;8.02;;;2.00;;
57826;SDS011;43656;57.746;11.780;2022-08-11T01:04:27;10.68;;;2.10;;
57826;SDS011;43656;57.746;11.780;2022-08-11T01:27:26;10.93;;;2.58;;
57826;SDS011;43656;57.746;11.780;2022-08-11T01:36:19;6.65;;;2.20;;
57826;SDS011;43656;57.746;11.780;2022-08-11T01:47:37;5.00;;;2.00;;
57826;SDS011;43656;57.746;11.780;2022-08-11T01:56:12;8.73;;;2.35;;
57826;SDS011;43656;57.746;11.780;2022-08-11T01:59:17;8.90;;;2.75;;
57826;SDS011;43656;57.746;11.780;2022-08-11T02:07:29;9.10;;;2.30;;
57826;SDS011;43656;57.746;11.780;2022-08-11T02:15:48;13.23;;;3.20;;
57826;SDS011;43656;57.746;11.780;2022-08-11T02:21:15;7.43;;;2.60;;
57826;SDS011;43656;57.746;11.780;2022-08-11T02:24:15;7.95;;;2.58;;
57826;SDS011;43656;57.746;11.780;2022-08-11T02:26:48;11.60;;;2.78;;
57826;SDS011;43656;57.746;11.780;2022-08-11T02:29:28;9.05;;;2.40;;
57826;SDS011;43656;57.746;11.780;2022-08-11T02:32:14;5.20;;;2.38;;
57826;SDS011;43656;57.746;11.780;2022-08-11T02:35:18;12.70;;;2.40;;
57826;SDS011;43656;57.746;11.780;2022-08-11T02:40:41;8.48;;;2.50;;
57826;SDS011;43656;57.746;11.780;2022-08-11T02:54:52;8.57;;;2.78;;
57826;SDS011;43656;57.746;11.780;2022-08-11T02:57:55;12.95;;;3.25;;
57826;SDS011;43656;57.746;11.780;2022-08-11T03:00:29;8.27;;;2.88;;
57826;SDS011;43656;57.746;11.780;2022-08-11T03:03:19;10.48;;;3.00;;
57826;SDS011;43656;57.746;11.780;2022-08-11T03:06:10;12.85;;;2.67;;
57826;SDS011;43656;57.746;11.780;2022-08-11T03:09:05;10.23;;;2.85;;
57826;SDS011;43656;57.746;11.780;2022-08-11T03:14:55;14.68;;;2.97;;
57826;SDS011;43656;57.746;11.780;2022-08-11T03:18:03;12.35;;;3.40;;
57826;SDS011;43656;57.746;11.780;2022-08-11T03:20:50;8.63;;;3.00;;
57826;SDS011;43656;57.746;11.780;2022-08-11T03:29:33;11.00;;;3.47;;
57826;SDS011;43656;57.746;11.780;2022-08-11T03:32:03;10.50;;;2.90;;
57826;SDS011;43656;57.746;11.780;2022-08-11T03:34:34;8.15;;;3.00;;
57826;SDS011;43656;57.746;11.780;2022-08-11T03:37:24;8.77;;;3.05;;
57826;SDS011;43656;57.746;11.780;2022-08-11T03:43:28;5.57;;;2.60;;
57826;SDS011;43656;57.746;11.780;2022-08-11T03:46:13;11.05;;;2.65;;
57826;SDS011;43656;57.746;11.780;2022-08-11T03:48:56;10.82;;;3.10;;
57826;SDS011;43656;57.746;11.780;2022-08-11T03:51:55;11.13;;;2.90;;
57826;SDS011;43656;57.746;11.780;2022-08-11T03:57:38;10.52;;;3.00;;
57826;SDS011;43656;57.746;11.780;2022-08-11T04:00:38;8.95;;;2.55;;
57826;SDS011;43656;57.746;11.780;2022-08-11T04:03:42;8.45;;;2.80;;
57826;SDS011;43656;57.746;11.780;2022-08-11T04:12:13;10.97;;;2.30;;
57826;SDS011;43656;57.746;11.780;2022-08-11T04:21:25;9.15;;;2.33;;
57826;SDS011;43656;57.746;11.780;2022-08-11T04:24:18;7.20;;;2.15;;
57826;SDS011;43656;57.746;11.780;2022-08-11T04:41:55;5.50;;;2.00;;
57826;SDS011;43656;57.746;11.780;2022-08-11T04:44:58;4.35;;;1.60;;
57826;SDS011;43656;57.746;11.780;2022-08-11T04:47:49;9.77;;;2.45;;
57826;SDS011;43656;57.746;11.780;2022-08-11T04:50:55;8.52;;;2.03;;
57826;SDS011;43656;57.746;11.780;2022-08-11T04:56:37;9.32;;;1.90;;
57826;SDS011;43656;57.746;11.780;2022-08-11T05:05:22;7.68;;;1.80;;
57826;SDS011;43656;57.746;11.780;2022-08-11T05:08:33;4.47;;;1.73;;
57826;SDS011;43656;57.746;11.780;2022-08-11T05:16:57;4.88;;;1.50;;
57826;SDS011;43656;57.746;11.780;2022-08-11T05:19:46;3.58;;;1.40;;
57826;SDS011;43656;57.746;11.780;2022-08-11T05:22:31;5.10;;;1.50;;
57826;SDS011;43656;57.746;11.780;2022-08-11T05:25:17;3.13;;;1.25;;
57826;SDS011;43656;57.746;11.780;2022-08-11T05:28:08;6.28;;;2.20;;
57826;SDS011;43656;57.746;11.780;2022-08-11T05:30:55;6.78;;;1.60;;
57826;SDS011;43656;57.746;11.780;2022-08-11T05:33:48;5.63;;;1.80;;
57826;SDS011;43656;57.746;11.780;2022-08-11T05:36:43;4.82;;;1.60;;
57826;SDS011;43656;57.746;11.780;2022-08-11T05:39:14;6.57;;;1.60;;
57826;SDS011;43656;57.746;11.780;2022-08-11T05:42:00;5.82;;;1.70;;
57826;SDS011;43656;57.746;11.780;2022-08-11T05:44:47;4.97;;;1.40;;
57826;SDS011;43656;57.746;11.780;2022-08-11T05:47:32;5.80;;;1.70;;
57826;SDS011;43656;57.746;11.780;2022-08-11T05:50:18;5.40;;;1.58;;
57826;SDS011;43656;57.746;11.780;2022-08-11T05:53:05;5.07;;;1.67;;
57826;SDS011;43656;57.746;11.780;2022-08-11T05:55:53;3.97;;;1.45;;
57826;SDS011;43656;57.746;11.780;2022-08-11T05:58:39;3.63;;;1.55;;
57826;SDS011;43656;57.746;11.780;2022-08-11T06:01:07;2.85;;;1.23;;
57826;SDS011;43656;57.746;11.780;2022-08-11T06:03:33;4.28;;;1.35;;
57826;SDS011;43656;57.746;11.780;2022-08-11T06:06:21;3.88;;;1.40;;
57826;SDS011;43656;57.746;11.780;2022-08-11T06:08:48;4.85;;;1.50;;
57826;SDS011;43656;57.746;11.780;2022-08-11T06:11:18;3.22;;;1.30;;
57826;SDS011;43656;57.746;11.780;2022-08-11T06:13:43;5.30;;;1.40;;
57826;SDS011;43656;57.746;11.780;2022-08-11T06:16:10;6.03;;;1.50;;
57826;SDS011;43656;57.746;11.780;2022-08-11T06:18:44;4.53;;;1.40;;
57826;SDS011;43656;57.746;11.780;2022-08-11T06:21:11;5.45;;;1.65;;
57826;SDS011;43656;57.746;11.780;2022-08-11T06:23:37;4.13;;;1.38;;
57826;SDS011;43656;57.746;11.780;2022-08-11T06:26:09;3.78;;;1.63;;
57826;SDS011;43656;57.746;11.780;2022-08-11T06:28:37;3.58;;;1.38;;
57826;SDS011;43656;57.746;11.780;2022-08-11T06:31:20;4.10;;;1.42;;
57826;SDS011;43656;57.746;11.780;2022-08-11T06:36:38;5.13;;;1.48;;
57826;SDS011;43656;57.746;11.780;2022-08-11T06:42:31;4.10;;;1.33;;
57826;SDS011;43656;57.746;11.780;2022-08-11T06:47:40;4.40;;;1.30;;
57826;SDS011;43656;57.746;11.780;2022-08-11T06:50:09;5.75;;;1.50;;
57826;SDS011;43656;57.746;11.780;2022-08-11T06:52:48;3.42;;;1.50;;
57826;SDS011;43656;57.746;11.780;2022-08-11T06:55:24;4.75;;;1.45;;
57826;SDS011;43656;57.746;11.780;2022-08-11T07:00:48;2.90;;;1.30;;
57826;SDS011;43656;57.746;11.780;2022-08-11T07:03:20;2.60;;;1.15;;
57826;SDS011;43656;57.746;11.780;2022-08-11T07:05:49;4.97;;;1.50;;
57826;SDS011;43656;57.746;11.780;2022-08-11T07:14:37;3.53;;;1.30;;
57826;SDS011;43656;57.746;11.780;2022-08-11T07:17:29;3.22;;;1.40;;
57826;SDS011;43656;57.746;11.780;2022-08-11T07:20:00;2.63;;;1.02;;
57826;SDS011;43656;57.746;11.780;2022-08-11T07:22:56;2.60;;;1.27;;
57826;SDS011;43656;57.746;11.780;2022-08-11T07:25:42;2.72;;;1.15;;
57826;SDS011;43656;57.746;11.780;2022-08-11T07:28:29;2.25;;;1.27;;
57826;SDS011;43656;57.746;11.780;2022-08-11T07:31:17;2.72;;;1.15;;
57826;SDS011;43656;57.746;11.780;2022-08-11T07:33:52;3.15;;;1.10;;
57826;SDS011;43656;57.746;11.780;2022-08-11T07:36:35;3.25;;;1.20;;
57826;SDS011;43656;57.746;11.780;2022-08-11T07:39:07;5.32;;;1.23;;
57826;SDS011;43656;57.746;11.780;2022-08-11T07:41:36;3.30;;;1.38;;
57826;SDS011;43656;57.746;11.780;2022-08-11T07:44:03;2.30;;;1.10;;
57826;SDS011;43656;57.746;11.780;2022-08-11T07:46:38;2.13;;;1.00;;
57826;SDS011;43656;57.746;11.780;2022-08-11T07:49:24;2.47;;;1.30;;
57826;SDS011;43656;57.746;11.780;2022-08-11T07:52:09;4.70;;;1.13;;
57826;SDS011;43656;57.746;11.780;2022-08-11T07:54:55;2.60;;;1.00;;
57826;SDS011;43656;57.746;11.780;2022-08-11T07:57:22;4.32;;;1.00;;
57826;SDS011;43656;57.746;11.780;2022-08-11T08:00:07;3.40;;;1.23;;
57826;SDS011;43656;57.746;11.780;2022-08-11T08:02:52;2.33;;;1.00;;
57826;SDS011;43656;57.746;11.780;2022-08-11T08:08:20;4.10;;;1.10;;
57826;SDS011;43656;57.746;11.780;2022-08-11T08:11:05;2.65;;;1.00;;
57826;SDS011;43656;57.746;11.780;2022-08-11T08:13:50;3.85;;;1.05;;
57826;SDS011;43656;57.746;11.780;2022-08-11T08:16:36;2.33;;;1.00;;
57826;SDS011;43656;57.746;11.780;2022-08-11T08:19:22;3.65;;;1.02;;
57826;SDS011;43656;57.746;11.780;2022-08-11T08:21:48;2.72;;;1.20;;
57826;SDS011;43656;57.746;11.780;2022-08-11T08:24:14;2.17;;;0.93;;
57826;SDS011;43656;57.746;11.780;2022-08-11T08:26:44;3.60;;;1.10;;
57826;SDS011;43656;57.746;11.780;2022-08-11T08:29:25;2.58;;;1.30;;
57826;SDS011;43656;57.746;11.780;2022-08-11T08:32:11;5.03;;;1.08;;
57826;SDS011;43656;57.746;11.780;2022-08-11T08:34:37;2.53;;;1.00;;
57826;SDS011;43656;57.746;11.780;2022-08-11T08:37:05;2.22;;;0.95;;
57826;SDS011;43656;57.746;11.780;2022-08-11T08:39:31;2.85;;;0.90;;
57826;SDS011;43656;57.746;11.780;2022-08-11T08:41:58;3.55;;;1.00;;
57826;SDS011;43656;57.746;11.780;2022-08-11T08:44:28;1.55;;;0.80;;
57826;SDS011;43656;57.746;11.780;2022-08-11T08:46:58;2.15;;;0.90;;
57826;SDS011;43656;57.746;11.780;2022-08-11T08:49:32;2.30;;;0.88;;
57826;SDS011;43656;57.746;11.780;2022-08-11T08:52:04;2.88;;;1.15;;
57826;SDS011;43656;57.746;11.780;2022-08-11T08:54:33;3.63;;;1.00;;
57826;SDS011;43656;57.746;11.780;2022-08-11T08:57:02;2.67;;;0.95;;
57826;SDS011;43656;57.746;11.780;2022-08-11T08:59:30;2.65;;;0.90;;
57826;SDS011;43656;57.746;11.780;2022-08-11T09:02:01;3.33;;;0.73;;
57826;SDS011;43656;57.746;11.780;2022-08-11T10:03:58;3.40;;;0.80;;
57826;SDS011;43656;57.746;11.780;2022-08-11T10:06:28;2.22;;;0.80;;
57826;SDS011;43656;57.746;11.780;2022-08-11T10:09:15;1.63;;;0.80;;
57826;SDS011;43656;57.746;11.780;2022-08-11T10:11:45;2.67;;;0.88;;
57826;SDS011;43656;57.746;11.780;2022-08-11T10:14:12;1.73;;;0.70;;
57826;SDS011;43656;57.746;11.780;2022-08-11T11:29:26;2.17;;;0.73;;
57826;SDS011;43656;57.746;11.780;2022-08-11T11:44:59;2.10;;;0.80;;
57826;SDS011;43656;57.746;11.780;2022-08-11T11:47:26;1.23;;;0.65;;
57826;SDS011;43656;57.746;11.780;2022-08-11T12:13:11;2.88;;;0.85;;
57826;SDS011;43656;57.746;11.780;2022-08-11T12:26:09;0.77;;;0.70;;
57826;SDS011;43656;57.746;11.780;2022-08-11T12:28:49;1.05;;;0.60;;
57826;SDS011;43656;57.746;11.780;2022-08-11T12:37:19;1.33;;;0.60;;
57826;SDS011;43656;57.746;11.780;2022-08-11T12:39:49;1.15;;;0.70;;
57826;SDS011;43656;57.746;11.780;2022-08-11T12:45:11;0.75;;;0.60;;
57826;SDS011;43656;57.746;11.780;2022-08-11T12:48:40;2.15;;;0.60;;
57826;SDS011;43656;57.746;11.780;2022-08-11T12:51:05;1.83;;;0.90;;
57826;SDS011;43656;57.746;11.780;2022-08-11T12:53:54;1.50;;;0.80;;
57826;SDS011;43656;57.746;11.780;2022-08-11T12:56:27;1.00;;;0.70;;
57826;SDS011;43656;57.746;11.780;2022-08-11T12:59:15;3.90;;;1.00;;
57826;SDS011;43656;57.746;11.780;2022-08-11T13:04:44;3.05;;;0.93;;
57826;SDS011;43656;57.746;11.780;2022-08-11T13:07:26;2.95;;;1.10;;
57826;SDS011;43656;57.746;11.780;2022-08-11T13:09:54;1.98;;;0.90;;
57826;SDS011;43656;57.746;11.780;2022-08-11T13:12:23;1.65;;;0.98;;
57826;SDS011;43656;57.746;11.780;2022-08-11T13:15:13;1.30;;;1.00;;
57826;SDS011;43656;57.746;11.780;2022-08-11T13:17:40;1.75;;;1.00;;
57826;SDS011;43656;57.746;11.780;2022-08-11T13:20:09;5.35;;;1.10;;
57826;SDS011;43656;57.746;11.780;2022-08-11T13:22:37;2.15;;;0.90;;
57826;SDS011;43656;57.746;11.780;2022-08-11T13:25:05;2.00;;;1.00;;
57826;SDS011;43656;57.746;11.780;2022-08-11T13:53:24;1.52;;;0.80;;
57826;SDS011;43656;57.746;11.780;2022-08-11T14:08:47;1.45;;;0.80;;
57826;SDS011;43656;57.746;11.780;2022-08-11T14:16:31;3.92;;;0.90;;
57826;SDS011;43656;57.746;11.780;2022-08-11T15:02:59;1.20;;;1.00;;
57826;SDS011;43656;57.746;11.780;2022-08-11T15:52:11;1.15;;;1.00;;
57826;SDS011;43656;57.746;11.780;2022-08-11T15:54:41;4.10;;;1.38;;
57826;SDS011;43656;57.746;11.780;2022-08-11T16:04:56;3.63;;;1.00;;
57826;SDS011;43656;57.746;11.780;2022-08-11T16:10:03;3.45;;;1.17;;
57826;SDS011;43656;57.746;11.780;2022-08-11T16:17:55;3.90;;;0.90;;
57826;SDS011;43656;57.746;11.780;2022-08-11T16:20:25;4.18;;;1.00;;
57826;SDS011;43656;57.746;11.780;2022-08-11T16:22:55;2.58;;;1.23;;
57826;SDS011;43656;57.746;11.780;2022-08-11T16:25:24;2.00;;;1.13;;
57826;SDS011;43656;57.746;11.780;2022-08-11T16:27:53;4.35;;;1.27;;
57826;SDS011;43656;57.746;11.780;2022-08-11T16:30:23;1.98;;;1.00;;
57826;SDS011;43656;57.746;11.780;2022-08-11T16:32:51;2.80;;;1.30;;
57826;SDS011;43656;57.746;11.780;2022-08-11T16:35:18;1.10;;;1.00;;
57826;SDS011;43656;57.746;11.780;2022-08-11T16:38:06;1.83;;;1.10;;
57826;SDS011;43656;57.746;11.780;2022-08-11T16:40:53;3.95;;;1.20;;
57826;SDS011;43656;57.746;11.780;2022-08-11T16:43:22;2.00;;;1.20;;
57826;SDS011;43656;57.746;11.780;2022-08-11T16:46:09;2.08;;;1.20;;
57826;SDS011;43656;57.746;11.780;2022-08-11T16:48:56;2.20;;;1.20;;
57826;SDS011;43656;57.746;11.780;2022-08-11T16:51:24;2.80;;;1.45;;
57826;SDS011;43656;57.746;11.780;2022-08-11T16:53:50;1.92;;;1.20;;
57826;SDS011;43656;57.746;11.780;2022-08-11T16:56:19;1.98;;;1.15;;
57826;SDS011;43656;57.746;11.780;2022-08-11T16:58:49;2.45;;;1.17;;
57826;SDS011;43656;57.746;11.780;2022-08-11T17:01:37;2.63;;;1.30;;
57826;SDS011;43656;57.746;11.780;2022-08-11T17:04:07;2.05;;;1.20;;
57826;SDS011;43656;57.746;11.780;2022-08-11T17:07:10;2.00;;;1.17;;
57826;SDS011;43656;57.746;11.780;2022-08-11T17:09:56;1.65;;;0.90;;
57826;SDS011;43656;57.746;11.780;2022-08-11T17:12:43;2.00;;;1.17;;
57826;SDS011;43656;57.746;11.780;2022-08-11T17:15:33;2.25;;;1.10;;
57826;SDS011;43656;57.746;11.780;2022-08-11T17:18:19;1.30;;;1.00;;
57826;SDS011;43656;57.746;11.780;2022-08-11T17:21:08;1.75;;;0.90;;
57826;SDS011;43656;57.746;11.780;2022-08-11T17:23:40;1.70;;;1.10;;
57826;SDS011;43656;57.746;11.780;2022-08-11T17:26:17;2.42;;;1.00;;
57826;SDS011;43656;57.746;11.780;2022-08-11T17:28:45;2.47;;;1.58;;
57826;SDS011;43656;57.746;11.780;2022-08-11T17:31:15;3.30;;;1.20;;
57826;SDS011;43656;57.746;11.780;2022-08-11T17:34:02;2.55;;;1.20;;
57826;SDS011;43656;57.746;11.780;2022-08-11T17:36:49;2.67;;;0.93;;
57826;SDS011;43656;57.746;11.780;2022-08-11T17:39:18;2.90;;;0.82;;
57826;SDS011;43656;57.746;11.780;2022-08-11T17:41:45;2.10;;;0.90;;
57826;SDS011;43656;57.746;11.780;2022-08-11T17:44:29;1.55;;;0.80;;
57826;SDS011;43656;57.746;11.780;2022-08-11T17:47:14;1.80;;;0.90;;
57826;SDS011;43656;57.746;11.780;2022-08-11T17:50:00;1.92;;;0.80;;
57826;SDS011;43656;57.746;11.780;2022-08-11T17:52:27;2.88;;;0.90;;
57826;SDS011;43656;57.746;11.780;2022-08-11T17:55:13;2.10;;;0.95;;
57826;SDS011;43656;57.746;11.780;2022-08-11T17:57:58;1.92;;;0.80;;
57826;SDS011;43656;57.746;11.780;2022-08-11T18:00:43;3.97;;;0.93;;
57826;SDS011;43656;57.746;11.780;2022-08-11T18:03:09;3.63;;;0.90;;
57826;SDS011;43656;57.746;11.780;2022-08-11T18:05:56;3.65;;;0.88;;
57826;SDS011;43656;57.746;11.780;2022-08-11T18:08:24;1.05;;;0.80;;
57826;SDS011;43656;57.746;11.780;2022-08-11T18:11:12;2.67;;;0.80;;
57826;SDS011;43656;57.746;11.780;2022-08-11T18:13:57;3.00;;;1.10;;
57826;SDS011;43656;57.746;11.780;2022-08-11T18:16:45;3.22;;;0.90;;
57826;SDS011;43656;57.746;11.780;2022-08-11T18:19:28;2.33;;;0.85;;
57826;SDS011;43656;57.746;11.780;2022-08-11T18:22:20;1.15;;;0.70;;
57826;SDS011;43656;57.746;11.780;2022-08-11T18:25:14;2.97;;;0.70;;
57826;SDS011;43656;57.746;11.780;2022-08-11T18:28:03;2.80;;;0.90;;
57826;SDS011;43656;57.746;11.780;2022-08-11T18:30:49;2.25;;;1.00;;
57826;SDS011;43656;57.746;11.780;2022-08-11T18:33:40;1.20;;;0.75;;
57826;SDS011;43656;57.746;11.780;2022-08-11T18:36:27;3.53;;;1.10;;
57826;SDS011;43656;57.746;11.780;2022-08-11T20:20:52;5.13;;;2.20;;
57826;SDS011;43656;57.746;11.780;2022-08-11T20:23:39;7.88;;;2.55;;
57826;SDS011;43656;57.746;11.780;2022-08-11T20:26:27;5.85;;;2.38;;
57826;SDS011;43656;57.746;11.780;2022-08-11T20:29:13;4.35;;;2.33;;
57826;SDS011;43656;57.746;11.780;2022-08-11T22:17:05;6.47;;;4.53;;
